Time;durP1;ratioP1;P1;durP2;ratioP2;P2;SDS_P1;SDS_P2;PMS_P1;PMS_P2;Temp;Humidity;BMP_temperature;BMP_pressure;BME280_temperature;BME280_humidity;BME280_pressure;Samples;Min_cycle;Max_cycle;Signal;HPM_P1;HPM_P2
2021/11/10 00:01:49;;;;;;;20.08;10.25;;;;;;;3.69;94.32;101410.25;5006524;28;20269;-54
2021/11/10 00:04:18;;;;;;;14.65;8.93;;;;;;;3.69;93.88;101391.91;5007641;28;20456;-53
2021/11/10 00:06:44;;;;;;;16.10;9.48;;;;;;;3.73;93.90;101384.91;5013292;28;20042;-54
2021/11/10 00:09:11;;;;;;;14.15;9.20;;;;;;;3.69;93.60;101391.91;5012686;28;20415;-52
2021/11/10 00:11:37;;;;;;;16.35;9.07;;;;;;;3.67;93.47;101398.00;5006055;28;20145;-52
2021/11/10 00:14:04;;;;;;;14.30;9.40;;;;;;;3.60;93.93;101383.22;5008210;28;20053;-54
2021/11/10 00:16:31;;;;;;;16.15;9.50;;;;;;;3.61;93.58;101383.22;5007590;28;20046;-53
2021/11/10 00:18:58;;;;;;;15.43;9.30;;;;;;;3.59;93.89;101381.47;5010430;28;20045;-51
2021/11/10 00:21:26;;;;;;;12.38;8.80;;;;;;;3.52;93.72;101385.84;5007446;28;20382;-53
2021/11/10 00:23:54;;;;;;;16.02;9.48;;;;;;;3.48;94.56;101390.19;5005003;28;20045;-53
2021/11/10 00:26:22;;;;;;;15.60;9.43;;;;;;;3.46;94.60;101388.50;5007203;28;20050;-51
2021/11/10 00:28:49;;;;;;;15.63;8.88;;;;;;;3.47;94.68;101383.22;5006799;28;20049;-51
2021/11/10 00:31:17;;;;;;;16.48;9.75;;;;;;;3.46;95.11;101393.72;5004743;28;20045;-52
2021/11/10 00:33:45;;;;;;;14.02;9.18;;;;;;;3.43;94.54;101385.88;5006817;28;20132;-52
2021/11/10 00:36:13;;;;;;;15.27;9.48;;;;;;;3.39;94.86;101378.88;5005892;28;20414;-53
2021/11/10 00:38:40;;;;;;;16.13;9.20;;;;;;;3.33;95.06;101387.63;5007116;28;20061;-51
2021/11/10 00:41:07;;;;;;;14.20;9.30;;;;;;;3.29;95.16;101383.28;5014402;28;20053;-54
2021/11/10 00:43:34;;;;;;;15.23;9.48;;;;;;;3.26;95.09;101382.41;5006666;28;20049;-52
2021/11/10 00:46:01;;;;;;;15.82;9.90;;;;;;;3.24;95.22;101389.38;5005680;28;20081;-54
2021/11/10 00:48:27;;;;;;;14.55;9.63;;;;;;;3.23;95.82;101387.63;5016180;28;20450;-52
2021/11/10 00:50:54;;;;;;;16.80;9.40;;;;;;;3.20;95.65;101398.09;5010750;28;20041;-53
2021/11/10 00:53:20;;;;;;;16.17;9.15;;;;;;;3.15;95.82;101393.72;5010136;28;20081;-52
2021/11/10 00:55:47;;;;;;;17.80;9.65;;;;;;;3.12;95.16;101401.63;5012341;28;20061;-51
2021/11/10 00:58:13;;;;;;;17.02;10.10;;;;;;;3.14;95.47;101397.25;5010148;28;20060;-51
2021/11/10 01:00:40;;;;;;;15.20;9.07;;;;;;;3.14;94.87;101393.78;5016589;28;20497;-52
2021/11/10 01:03:07;;;;;;;13.63;8.98;;;;;;;3.09;94.99;101392.88;5005928;28;20068;-52
2021/11/10 01:05:34;;;;;;;18.75;10.25;;;;;;;3.05;95.45;101388.53;5003852;28;20050;-50
2021/11/10 01:08:03;;;;;;;15.00;9.80;;;;;;;3.00;96.39;101378.03;5015173;28;20462;-52
2021/11/10 01:10:31;;;;;;;17.67;10.27;;;;;;;2.97;95.94;101379.81;5015679;28;20038;-51
2021/11/10 01:12:58;;;;;;;16.77;10.23;;;;;;;2.91;96.56;101388.53;5008396;28;20056;-52
2021/11/10 01:15:25;;;;;;;14.15;9.90;;;;;;;2.92;96.92;101395.50;5009819;28;20046;-53
2021/11/10 01:17:52;;;;;;;13.70;10.15;;;;;;;2.94;97.12;101392.91;5009088;28;20052;-51
2021/11/10 01:20:19;;;;;;;15.30;9.55;;;;;;;2.95;96.57;101387.66;5009443;28;20411;-50
2021/11/10 01:22:45;;;;;;;16.20;9.57;;;;;;;2.98;97.06;101382.44;5012768;28;20408;-51
2021/11/10 01:25:12;;;;;;;17.38;9.70;;;;;;;2.98;96.81;101379.81;5008790;28;20061;-51
2021/11/10 01:27:39;;;;;;;14.80;9.55;;;;;;;2.98;97.08;101377.19;5015218;28;20042;-52
2021/11/10 01:30:08;;;;;;;14.48;9.55;;;;;;;3.01;96.52;101385.03;5018804;28;20049;-53
2021/11/10 01:32:35;;;;;;;16.55;9.45;;;;;;;3.01;96.93;101387.63;5010955;28;20046;-53
2021/11/10 01:35:02;;;;;;;15.65;9.85;;;;;;;2.99;96.79;101388.53;5014438;28;20041;-51
2021/11/10 01:37:28;;;;;;;14.60;9.40;;;;;;;3.00;96.80;101392.88;5013212;28;20053;-51
2021/11/10 01:39:56;;;;;;;17.02;9.93;;;;;;;2.97;96.17;101390.28;5010998;28;20050;-55
2021/11/10 01:42:25;;;;;;;16.08;9.68;;;;;;;2.95;96.85;101381.56;5008927;28;20045;-53
2021/11/10 01:44:52;;;;;;;15.23;9.40;;;;;;;2.95;97.33;101376.31;5011819;28;20052;-52
2021/11/10 01:47:18;;;;;;;15.52;9.38;;;;;;;2.95;97.06;101379.81;5015333;28;20053;-53
2021/11/10 01:49:45;;;;;;;18.00;9.48;;;;;;;2.80;96.82;101354.53;5008797;28;20432;-51
2021/11/10 01:52:11;;;;;;;15.65;9.30;;;;;;;2.93;96.46;101367.59;5009444;28;20060;-52
2021/11/10 01:54:40;;;;;;;16.33;9.40;;;;;;;2.92;96.73;101366.72;5011852;28;20389;-57
2021/11/10 01:57:08;;;;;;;16.40;8.98;;;;;;;2.89;96.35;101365.84;5021198;28;20049;-53
2021/11/10 01:59:41;;;;;;;14.07;8.60;;;;;;;2.85;97.61;101359.75;5009588;28;20049;-52
2021/11/10 02:02:25;;;;;;;15.50;9.30;;;;;;;2.86;97.59;101355.38;5008713;28;20103;-52
2021/11/10 02:04:52;;;;;;;15.02;8.98;;;;;;;2.88;97.04;101348.41;5009126;28;20329;-52
2021/11/10 02:07:20;;;;;;;14.57;8.52;;;;;;;2.87;96.86;101344.91;5013616;28;20438;-53
2021/11/10 02:09:49;;;;;;;14.15;8.90;;;;;;;2.85;96.90;101346.66;5017153;28;20129;-51
2021/11/10 02:12:18;;;;;;;15.93;9.15;;;;;;;2.85;97.47;101345.78;5009280;28;20400;-51
2021/11/10 02:14:45;;;;;;;14.68;8.65;;;;;;;2.81;97.71;101348.44;5009285;28;20054;-52
2021/11/10 02:17:14;;;;;;;16.42;9.02;;;;;;;2.79;97.59;101349.28;5009394;28;20085;-53
2021/11/10 02:19:41;;;;;;;18.58;8.68;;;;;;;2.76;97.87;101355.41;5011985;28;20066;-53
2021/11/10 02:22:08;;;;;;;14.48;9.07;;;;;;;2.75;97.61;101350.16;5013867;28;20073;-53
2021/11/10 02:24:37;;;;;;;16.38;8.77;;;;;;;2.76;97.35;101354.53;5012102;28;20046;-51
2021/11/10 02:27:03;;;;;;;13.82;8.75;;;;;;;2.77;97.68;101348.41;5016362;28;20052;-52
2021/11/10 02:29:31;;;;;;;13.77;9.13;;;;;;;2.76;97.66;101357.13;5011018;28;20043;-51
2021/11/10 02:31:58;;;;;;;14.77;8.63;;;;;;;2.75;97.79;101363.25;5011421;28;20225;-52
2021/11/10 02:34:25;;;;;;;15.30;9.48;;;;;;;2.73;97.99;101358.00;5009835;28;20439;-53
2021/11/10 02:36:52;;;;;;;11.88;8.80;;;;;;;2.73;98.15;101358.00;5015964;28;20050;-53
2021/11/10 02:39:22;;;;;;;17.05;9.75;;;;;;;2.76;98.67;101354.53;5015296;28;20046;-53
2021/11/10 02:41:49;;;;;;;15.27;9.13;;;;;;;2.85;97.55;101351.88;5009445;28;20423;-52
2021/11/10 02:44:18;;;;;;;13.82;8.85;;;;;;;2.87;96.55;101355.38;5008918;28;20049;-52
2021/11/10 02:46:47;;;;;;;16.15;9.00;;;;;;;2.82;97.01;101354.53;5012407;28;20144;-51
2021/11/10 02:49:14;;;;;;;15.18;8.65;;;;;;;2.78;97.53;101345.81;5010441;28;20054;-53
2021/11/10 02:51:58;;;;;;;15.15;8.48;;;;;;;2.75;97.42;101337.97;5009645;28;20038;-55
2021/11/10 02:54:26;;;;;;;13.85;9.00;;;;;;;2.72;97.63;101329.22;4995388;28;20042;-52
2021/11/10 02:56:54;;;;;;;14.05;8.82;;;;;;;2.68;97.54;101335.31;5009417;28;20052;-58
2021/11/10 02:59:22;;;;;;;12.55;8.63;;;;;;;2.67;97.78;101333.59;5013769;28;20057;-52
2021/11/10 03:01:52;;;;;;;16.80;9.30;;;;;;;2.66;97.34;101337.09;5008834;28;20038;-55
2021/11/10 03:04:19;;;;;;;17.08;9.00;;;;;;;2.65;97.72;101327.50;5008685;28;20046;-50
2021/11/10 03:06:46;;;;;;;13.73;9.32;;;;;;;2.66;98.10;101332.75;5010908;28;20061;-51
2021/11/10 03:09:16;;;;;;;14.50;9.00;;;;;;;2.66;97.83;101324.03;5013396;28;20057;-53
2021/11/10 03:11:43;;;;;;;13.48;9.07;;;;;;;2.67;98.14;101326.63;5009119;28;20045;-51
2021/11/10 03:14:10;;;;;;;13.48;8.52;;;;;;;2.65;98.70;101327.50;5007226;28;20046;-53
2021/11/10 03:16:36;;;;;;;16.42;8.88;;;;;;;2.70;99.25;101330.97;5009087;28;20538;-52
2021/11/10 03:19:03;;;;;;;14.57;9.65;;;;;;;2.72;99.54;101318.78;5014096;28;20056;-52
2021/11/10 03:21:29;;;;;;;14.02;8.40;;;;;;;2.72;98.99;101319.63;5008324;28;20523;-52
2021/11/10 03:23:56;;;;;;;16.17;9.25;;;;;;;2.71;99.15;101319.63;5008821;28;20053;-53
2021/11/10 03:26:22;;;;;;;13.88;8.77;;;;;;;2.75;99.04;101317.03;5011301;28;20049;-52
2021/11/10 03:28:49;;;;;;;15.57;7.55;;;;;;;2.76;99.30;101316.16;5012150;28;20064;-52
2021/11/10 03:31:17;;;;;;;13.93;8.05;;;;;;;2.76;98.61;101313.53;5010705;28;20129;-53
2021/11/10 03:33:43;;;;;;;14.20;8.88;;;;;;;2.77;98.23;101311.81;5010289;28;20133;-53
2021/11/10 03:36:10;;;;;;;12.57;7.75;;;;;;;2.80;97.96;101323.16;5008776;28;20041;-51
2021/11/10 03:38:36;;;;;;;16.67;8.88;;;;;;;2.80;97.81;101319.66;5015759;28;20052;-52
2021/11/10 03:41:03;;;;;;;11.55;7.80;;;;;;;2.74;97.07;101314.41;5015666;28;20517;-51
2021/11/10 03:43:29;;;;;;;14.80;8.38;;;;;;;2.69;97.50;101305.69;5012276;28;20048;-52
2021/11/10 03:45:56;;;;;;;12.43;7.90;;;;;;;2.52;97.30;101279.53;5010037;28;20046;-51
2021/11/10 03:48:23;;;;;;;13.68;7.95;;;;;;;2.59;97.07;101293.50;5015079;28;20049;-53
2021/11/10 03:50:49;;;;;;;12.75;7.95;;;;;;;2.51;97.18;101298.75;5011649;28;20159;-52
2021/11/10 03:53:16;;;;;;;13.77;8.25;;;;;;;2.43;97.33;101292.63;5009692;28;20048;-53
2021/11/10 03:55:42;;;;;;;13.35;8.23;;;;;;;2.38;97.57;101296.97;5021557;28;20518;-52
2021/11/10 03:58:10;;;;;;;14.65;8.50;;;;;;;2.33;98.02;101312.66;4998185;28;20197;-52
2021/11/10 04:00:37;;;;;;;15.23;8.68;;;;;;;2.32;97.64;101313.53;5018436;28;20507;-53
2021/11/10 04:03:04;;;;;;;14.77;8.15;;;;;;;2.34;98.01;101314.41;5008788;28;20047;-50
2021/11/10 04:05:30;;;;;;;16.52;8.15;;;;;;;2.34;98.00;101314.41;5009627;28;20053;-53
2021/11/10 04:07:57;;;;;;;12.55;7.90;;;;;;;2.30;98.05;101299.59;5012788;28;20038;-53
2021/11/10 04:10:24;;;;;;;13.77;7.38;;;;;;;2.32;97.61;101303.09;5012211;28;20049;-51
2021/11/10 04:12:50;;;;;;;14.95;9.13;;;;;;;2.28;97.56;101314.38;5020747;28;20060;-52
2021/11/10 04:15:17;;;;;;;12.73;7.75;;;;;;;2.27;98.14;101302.19;5014321;28;20054;-55
2021/11/10 04:17:43;;;;;;;14.43;8.45;;;;;;;2.23;97.82;101294.34;5019332;28;20050;-53
2021/11/10 04:20:10;;;;;;;13.55;8.27;;;;;;;2.19;98.48;101298.72;4999951;28;20053;-51
2021/11/10 04:22:37;;;;;;;16.50;8.48;;;;;;;2.13;98.35;101272.56;5011980;28;20345;-52
2021/11/10 04:25:04;;;;;;;11.95;7.95;;;;;;;2.21;98.38;101296.06;5016381;28;20046;-51
2021/11/10 04:27:30;;;;;;;15.25;8.52;;;;;;;2.19;98.21;101293.50;5015025;28;20056;-52
2021/11/10 04:29:57;;;;;;;16.95;8.43;;;;;;;2.16;98.01;101301.31;5015416;28;20475;-53
2021/11/10 04:32:23;;;;;;;12.93;8.25;;;;;;;2.17;98.19;101291.75;5018614;28;20049;-53
2021/11/10 04:34:50;;;;;;;15.52;8.93;;;;;;;2.16;98.44;101287.38;5011503;28;20041;-52
2021/11/10 04:37:16;;;;;;;14.50;8.73;;;;;;;2.10;98.88;101277.78;5024057;28;20073;-53
2021/11/10 04:39:43;;;;;;;13.63;7.75;;;;;;;2.15;98.87;101280.41;5019290;28;20049;-52
2021/11/10 04:42:10;;;;;;;15.18;7.85;;;;;;;2.16;99.16;101284.75;5014710;28;20075;-52
2021/11/10 04:44:36;;;;;;;11.20;8.02;;;;;;;2.13;98.84;101285.63;5009631;28;20120;-52
2021/11/10 04:47:05;;;;;;;12.20;7.85;;;;;;;1.99;98.43;101264.72;5020592;28;20080;-53
2021/11/10 04:49:32;;;;;;;14.13;8.57;;;;;;;2.11;98.53;101283.00;5016485;28;20041;-52
2021/11/10 04:52:01;;;;;;;13.77;8.30;;;;;;;2.16;99.09;101277.78;5016962;28;20092;-51
2021/11/10 04:54:30;;;;;;;14.20;8.75;;;;;;;2.20;98.94;101260.38;5009906;28;20061;-51
2021/11/10 04:56:58;;;;;;;12.15;7.97;;;;;;;2.19;98.00;101272.59;5014221;28;20088;-52
2021/11/10 04:59:25;;;;;;;14.48;7.60;;;;;;;2.07;98.01;101256.88;5016095;28;20050;-52
2021/11/10 05:04:38;;;;;;;14.60;8.30;;;;;;;2.18;98.56;101276.06;5008485;28;20394;-51
2021/11/10 05:07:06;;;;;;;13.90;8.15;;;;;;;2.15;97.84;101270.81;5017372;28;20057;-53
2021/11/10 05:09:33;;;;;;;14.55;7.90;;;;;;;2.13;98.54;101266.47;5010596;28;20439;-54
2021/11/10 05:12:00;;;;;;;14.50;8.23;;;;;;;2.14;98.46;101269.09;5016944;28;20042;-52
2021/11/10 05:14:26;;;;;;;14.25;8.98;;;;;;;2.13;98.02;101274.31;5012282;28;20061;-53
2021/11/10 05:16:53;;;;;;;14.48;8.40;;;;;;;2.08;98.08;101267.31;5010296;28;20099;-51
2021/11/10 05:19:19;;;;;;;13.32;8.38;;;;;;;2.10;98.85;101268.19;5010660;28;20049;-52
2021/11/10 05:21:46;;;;;;;18.42;8.20;;;;;;;2.13;98.55;101262.09;5015461;28;20123;-52
2021/11/10 05:24:13;;;;;;;13.10;8.35;;;;;;;2.13;98.45;101269.94;5008857;28;20061;-51
2021/11/10 05:26:39;;;;;;;14.50;8.30;;;;;;;2.17;98.47;101276.06;5017576;28;20042;-53
2021/11/10 05:29:07;;;;;;;14.13;8.63;;;;;;;2.19;98.44;101282.16;5013708;28;20056;-53
2021/11/10 05:31:35;;;;;;;14.75;9.52;;;;;;;2.17;98.43;101290.00;5019762;28;20042;-53
2021/11/10 05:34:03;;;;;;;13.18;8.25;;;;;;;2.18;98.08;101288.25;5006570;28;20041;-52
2021/11/10 05:36:30;;;;;;;14.05;9.45;;;;;;;2.17;98.52;101287.38;5014589;28;20050;-51
2021/11/10 05:38:57;;;;;;;15.00;8.30;;;;;;;2.13;98.24;101280.41;5014340;28;20056;-51
2021/11/10 05:41:23;;;;;;;12.98;7.85;;;;;;;2.09;98.59;101276.03;5015162;28;20041;-51
2021/11/10 05:43:50;;;;;;;15.95;8.77;;;;;;;2.08;98.70;101276.91;5008767;28;20041;-53
2021/11/10 05:46:16;;;;;;;13.30;8.90;;;;;;;2.13;98.61;101276.91;5020389;28;20049;-53
2021/11/10 05:48:43;;;;;;;13.38;8.52;;;;;;;2.13;98.83;101283.00;5015097;28;20236;-53
2021/11/10 05:51:09;;;;;;;17.35;8.82;;;;;;;2.15;98.90;101299.56;5013504;28;20051;-52
2021/11/10 05:53:42;;;;;;;16.25;9.00;;;;;;;2.14;98.62;101294.34;5010543;28;20046;-53
2021/11/10 05:56:19;;;;;;;14.88;8.68;;;;;;;2.14;98.92;101294.34;5018723;28;20042;-54
2021/11/10 05:58:46;;;;;;;16.83;9.13;;;;;;;2.15;98.93;101296.97;5017432;28;20050;-52
2021/11/10 06:01:12;;;;;;;20.05;9.45;;;;;;;2.17;99.26;101300.44;5016902;28;20052;-53
2021/11/10 06:03:39;;;;;;;14.70;8.60;;;;;;;2.17;99.13;101310.91;5013442;28;20050;-54
2021/11/10 06:06:05;;;;;;;15.05;8.95;;;;;;;2.20;99.21;101299.59;5009532;28;20565;-53
2021/11/10 06:08:36;;;;;;;16.70;8.45;;;;;;;2.23;99.60;101300.44;5019262;28;20041;-53
2021/11/10 06:11:07;;;;;;;13.40;9.00;;;;;;;2.20;99.33;101305.69;5013310;28;20041;-52
2021/11/10 06:13:34;;;;;;;16.45;8.60;;;;;;;2.19;99.26;101296.09;5010576;28;20079;-52
2021/11/10 06:16:00;;;;;;;11.80;8.70;;;;;;;2.23;98.33;101308.28;5014331;28;20056;-52
2021/11/10 06:18:29;;;;;;;13.80;7.65;;;;;;;2.23;98.22;101310.88;5017863;28;20049;-53
2021/11/10 06:20:57;;;;;;;15.40;8.85;;;;;;;2.20;97.42;101310.03;5021189;28;20053;-50
2021/11/10 06:23:24;;;;;;;14.65;8.77;;;;;;;2.17;97.19;101307.41;5008567;28;20060;-52
2021/11/10 06:25:50;;;;;;;15.60;8.77;;;;;;;2.09;97.80;101297.81;5012092;28;20043;-53
2021/11/10 06:28:17;;;;;;;23.67;11.13;;;;;;;2.02;97.56;101295.19;5010940;28;20092;-53
2021/11/10 06:30:43;;;;;;;26.30;15.73;;;;;;;2.00;97.57;101302.16;5018041;28;20055;-53
2021/11/10 06:33:10;;;;;;;26.55;16.48;;;;;;;1.94;97.84;101315.19;5014113;28;20065;-56
2021/11/10 06:35:36;;;;;;;27.15;15.30;;;;;;;1.94;97.93;101307.34;5012554;28;20364;-52
2021/11/10 06:38:03;;;;;;;24.08;14.65;;;;;;;1.89;97.81;101312.56;5013541;28;20093;-54
2021/11/10 06:40:30;;;;;;;25.73;14.85;;;;;;;1.86;98.24;101309.94;5017756;28;20087;-54
2021/11/10 06:42:56;;;;;;;21.88;13.52;;;;;;;1.85;98.55;101317.78;5021887;28;20052;-52
2021/11/10 06:45:26;;;;;;;19.30;12.95;;;;;;;1.86;98.47;101320.41;5007248;28;20053;-52
2021/11/10 06:47:52;;;;;;;19.77;12.90;;;;;;;1.86;98.50;101316.91;5014751;28;20053;-52
2021/11/10 06:50:19;;;;;;;19.30;12.18;;;;;;;1.85;98.53;101316.03;5015835;28;20045;-52
2021/11/10 06:52:45;;;;;;;17.95;11.15;;;;;;;1.89;98.29;101320.38;5020789;28;20259;-53
2021/11/10 06:55:12;;;;;;;14.70;10.65;;;;;;;1.91;97.69;101318.66;5008115;28;20060;-53
2021/11/10 06:57:39;;;;;;;15.93;9.75;;;;;;;2.02;98.14;101310.88;5018474;28;20132;-53
2021/11/10 07:00:11;;;;;;;16.73;9.18;;;;;;;2.01;97.01;101314.34;5017374;28;20084;-54
2021/11/10 07:02:38;;;;;;;18.88;9.77;;;;;;;2.00;97.35;101317.81;5010213;28;20050;-53
2021/11/10 07:05:05;;;;;;;16.50;9.25;;;;;;;1.99;97.48;101313.47;5012483;28;20045;-54
2021/11/10 07:07:31;;;;;;;13.70;9.32;;;;;;;2.02;97.66;101318.72;5019403;28;20060;-52
2021/11/10 07:09:58;;;;;;;16.08;9.65;;;;;;;1.94;98.03;101291.69;5017601;28;20057;-52
2021/11/10 07:12:25;;;;;;;14.95;9.18;;;;;;;2.10;97.65;101317.84;5016864;28;20057;-51
2021/11/10 07:14:51;;;;;;;16.70;9.50;;;;;;;2.23;98.75;101315.25;5012982;28;20044;-52
2021/11/10 07:17:18;;;;;;;19.63;10.20;;;;;;;2.38;99.98;101316.13;5019402;28;20065;-52
2021/11/10 07:19:44;;;;;;;18.10;9.90;;;;;;;2.41;99.37;101321.38;5019701;28;20434;-52
2021/11/10 07:22:11;;;;;;;17.63;10.18;;;;;;;2.42;98.68;101317.03;5015930;28;20045;-52
2021/11/10 07:24:37;;;;;;;17.60;10.15;;;;;;;2.56;98.84;101319.63;5009541;28;20410;-54
2021/11/10 07:27:04;;;;;;;19.83;10.48;;;;;;;2.63;98.50;101317.03;5014658;28;20044;-54
2021/11/10 07:29:31;;;;;;;15.98;9.90;;;;;;;2.70;98.29;101326.63;5020399;28;20097;-53
2021/11/10 07:31:58;;;;;;;17.85;9.85;;;;;;;2.79;98.47;101331.00;5017114;28;20044;-52
2021/11/10 07:34:25;;;;;;;14.75;9.55;;;;;;;2.82;96.93;101323.16;5015533;28;20093;-52
2021/11/10 07:36:51;;;;;;;16.95;9.80;;;;;;;2.88;95.93;101333.59;5013128;28;20049;-52
2021/11/10 07:39:18;;;;;;;22.33;10.05;;;;;;;2.95;96.16;101330.09;5013443;28;20056;-52
2021/11/10 07:41:47;;;;;;;22.00;9.80;;;;;;;2.99;95.75;101326.59;5011965;28;20358;-52
2021/11/10 07:44:14;;;;;;;19.92;9.75;;;;;;;3.02;95.72;101320.47;5007692;28;20495;-54
2021/11/10 07:46:50;;;;;;;19.88;9.70;;;;;;;3.06;94.47;101323.09;5010791;28;20046;-52
2021/11/10 07:49:21;;;;;;;15.40;9.23;;;;;;;3.14;94.67;101323.97;5011653;28;20054;-53
2021/11/10 07:51:49;;;;;;;17.15;9.10;;;;;;;3.23;94.86;101325.69;5012084;28;20073;-52
2021/11/10 07:54:15;;;;;;;16.60;9.85;;;;;;;3.35;94.99;101327.41;5012464;28;20525;-51
2021/11/10 07:56:42;;;;;;;14.18;9.30;;;;;;;3.47;94.00;101329.97;5008613;28;20517;-52
2021/11/10 07:59:08;;;;;;;15.10;8.70;;;;;;;3.66;91.62;101330.78;5010101;28;20045;-51
2021/11/10 08:01:35;;;;;;;14.07;8.63;;;;;;;3.84;90.50;101330.72;5011722;28;20045;-50
2021/11/10 08:04:03;;;;;;;11.77;8.48;;;;;;;4.07;88.58;101335.84;5010457;28;20049;-52
2021/11/10 08:06:33;;;;;;;14.98;8.52;;;;;;;4.20;87.73;101335.78;5009867;28;20062;-52
2021/11/10 08:09:02;;;;;;;14.52;8.10;;;;;;;4.28;87.40;101337.47;5036805;28;21474;-55
2021/11/10 08:11:28;;;;;;;11.65;7.80;;;;;;;4.41;88.21;101345.25;5027719;28;20056;-53
2021/11/10 08:13:57;;;;;;;16.02;8.27;;;;;;;4.55;87.51;101347.78;5027101;28;20049;-54
2021/11/10 08:16:24;;;;;;;11.60;8.15;;;;;;;4.68;86.88;101341.56;5029718;28;20053;-53
2021/11/10 08:18:51;;;;;;;11.65;7.25;;;;;;;4.70;86.28;101346.81;5031631;28;20132;-52
2021/11/10 08:21:19;;;;;;;10.07;7.70;;;;;;;4.69;85.39;101347.69;5029405;28;20419;-52
2021/11/10 08:23:45;;;;;;;11.70;8.45;;;;;;;4.74;85.42;101359.00;5031633;28;20045;-52
2021/11/10 08:26:12;;;;;;;10.50;7.22;;;;;;;4.79;84.99;101352.84;5032896;28;20052;-51
2021/11/10 08:28:38;;;;;;;12.63;8.07;;;;;;;4.89;85.99;101364.13;5026861;28;20041;-51
2021/11/10 08:31:05;;;;;;;15.30;8.05;;;;;;;5.02;83.82;101359.66;5030545;28;20051;-52
2021/11/10 08:33:32;;;;;;;13.25;7.88;;;;;;;5.08;83.76;101359.59;5029795;28;20053;-53
2021/11/10 08:35:59;;;;;;;12.30;8.00;;;;;;;5.03;84.21;101351.78;5025634;28;20049;-51
2021/11/10 08:38:26;;;;;;;11.90;8.13;;;;;;;5.05;84.30;101352.59;5029708;28;20499;-51
2021/11/10 08:40:54;;;;;;;13.77;8.43;;;;;;;5.09;84.13;101358.69;5034990;28;20048;-52
2021/11/10 08:43:20;;;;;;;12.40;7.95;;;;;;;5.14;83.88;101356.91;5037014;28;20051;-54
2021/11/10 08:45:51;;;;;;;14.80;8.43;;;;;;;5.12;84.61;101351.69;5026766;28;20057;-53
2021/11/10 08:48:18;;;;;;;;;;;;;;;5.17;84.54;101344.63;5031623;28;20045;-51
2021/11/10 08:50:45;;;;;;;14.82;8.10;;;;;;;5.21;84.32;101341.06;5033226;28;20013;-53
2021/11/10 08:53:17;;;;;;;13.93;8.38;;;;;;;5.32;84.17;101337.47;5034278;28;20071;-53
2021/11/10 08:55:50;;;;;;;12.52;8.45;;;;;;;5.41;84.10;101345.25;5014806;28;20558;-53
2021/11/10 08:58:17;;;;;;;13.60;8.38;;;;;;;5.53;84.16;101350.38;5034320;28;20053;-52
2021/11/10 09:00:44;;;;;;;14.27;8.80;;;;;;;5.69;82.51;101346.69;5031505;28;20153;-52
2021/11/10 09:03:11;;;;;;;12.32;8.23;;;;;;;5.83;83.50;101343.88;5028210;28;20067;-52
2021/11/10 09:05:38;;;;;;;12.50;8.25;;;;;;;5.98;81.32;101336.69;5031029;28;20063;-54
2021/11/10 09:08:05;;;;;;;13.55;8.35;;;;;;;6.09;80.79;101333.94;5036347;28;20049;-52
2021/11/10 09:10:34;;;;;;;13.50;8.85;;;;;;;6.25;80.66;101346.00;5036604;28;20135;-52
2021/11/10 09:13:03;;;;;;;13.32;8.85;;;;;;;6.38;79.43;101335.28;5034201;28;20160;-52
2021/11/10 09:15:32;;;;;;;11.80;8.73;;;;;;;6.43;78.58;101341.38;5030608;28;20049;-53
2021/11/10 09:18:01;;;;;;;15.45;9.30;;;;;;;6.43;78.38;101344.88;5035817;28;20474;-52
2021/11/10 09:20:29;;;;;;;14.25;9.65;;;;;;;6.56;79.17;101330.63;5037176;28;20529;-54
2021/11/10 09:22:57;;;;;;;12.27;8.48;;;;;;;6.77;77.46;101345.19;5017525;28;20518;-51
2021/11/10 09:25:25;;;;;;;15.35;9.20;;;;;;;6.79;75.41;101342.53;5029811;28;20441;-54
2021/11/10 09:27:53;;;;;;;16.42;9.00;;;;;;;6.69;76.31;101355.84;5030939;28;20044;-51
2021/11/10 09:30:21;;;;;;;13.50;8.80;;;;;;;6.72;76.06;101348.81;5042688;28;20433;-52
2021/11/10 09:32:50;;;;;;;13.77;8.77;;;;;;;6.68;76.82;101330.41;5020767;28;20049;-52
2021/11/10 09:35:18;;;;;;;14.60;8.88;;;;;;;6.78;76.99;101335.53;5032417;28;20060;-54
2021/11/10 09:37:45;;;;;;;12.00;8.15;;;;;;;6.94;76.72;101343.13;5039317;28;20037;-54
2021/11/10 09:40:15;;;;;;;12.07;8.52;;;;;;;7.11;74.99;101347.25;5036973;28;20433;-50
2021/11/10 09:42:42;;;;;;;11.75;8.50;;;;;;;7.05;75.31;101348.25;5035635;28;20041;-53
2021/11/10 09:45:14;;;;;;;12.63;8.20;;;;;;;7.16;75.46;101343.66;5032818;28;20507;-53
2021/11/10 09:47:42;;;;;;;12.75;8.90;;;;;;;7.26;74.31;101347.84;5030915;28;20044;-53
2021/11/10 09:50:13;;;;;;;12.13;8.00;;;;;;;7.43;74.75;101344.91;5033053;28;20049;-52
2021/11/10 09:52:39;;;;;;;12.35;8.98;;;;;;;7.58;72.87;101352.50;5034312;28;20048;-53
2021/11/10 09:55:09;;;;;;;12.48;8.15;;;;;;;7.66;72.28;101358.50;5030811;28;20056;-53
2021/11/10 09:57:36;;;;;;;12.63;8.55;;;;;;;7.72;73.09;101345.19;5035332;28;20050;-51
2021/11/10 10:00:11;;;;;;;15.52;8.45;;;;;;;7.79;71.52;101345.94;5021274;28;20448;-52
2021/11/10 10:02:48;;;;;;;11.35;8.38;;;;;;;7.78;71.48;101338.94;5037616;28;20076;-54
2021/11/10 10:05:16;;;;;;;11.30;8.70;;;;;;;7.85;71.21;101339.69;5031440;28;20442;-54
2021/11/10 10:07:47;;;;;;;12.82;9.07;;;;;;;7.88;69.65;101337.84;5037864;28;20132;-54
2021/11/10 10:10:14;;;;;;;14.50;9.52;;;;;;;7.89;70.65;101342.22;5040372;28;20045;-52
2021/11/10 10:12:41;;;;;;;13.80;9.30;;;;;;;7.88;69.81;101352.78;5039235;28;20037;-53
2021/11/10 10:15:11;;;;;;;13.35;9.23;;;;;;;7.83;69.34;101345.00;5029366;28;20541;-52
2021/11/10 10:17:44;;;;;;;12.60;9.50;;;;;;;7.74;69.25;101339.88;5030180;28;20065;-52
2021/11/10 10:20:38;;;;;;;16.75;9.95;;;;;;;7.58;70.36;101349.00;5037081;28;20061;-52
2021/11/10 10:23:08;;;;;;;14.20;9.25;;;;;;;7.59;71.12;101340.19;5029415;28;20037;-52
2021/11/10 10:25:39;;;;;;;13.63;9.50;;;;;;;7.77;71.32;101338.97;5027341;28;20050;-52
2021/11/10 10:28:08;;;;;;;16.27;9.95;;;;;;;7.85;69.87;101337.94;5035065;28;20490;-51
2021/11/10 10:30:56;;;;;;;13.50;9.98;;;;;;;7.93;69.20;101324.56;5040485;28;20052;-50
2021/11/10 10:33:26;;;;;;;14.45;10.00;;;;;;;7.93;68.75;101319.28;5038239;28;20049;-52
2021/11/10 10:35:57;;;;;;;14.57;10.10;;;;;;;7.85;69.10;101319.47;5035315;28;20057;-53
2021/11/10 10:38:31;;;;;;;13.85;10.07;;;;;;;7.69;69.47;101302.22;5035629;28;20046;-53
2021/11/10 10:41:01;;;;;;;16.05;9.90;;;;;;;7.65;70.41;101308.47;5038388;28;20048;-51
2021/11/10 10:43:29;;;;;;;17.23;10.13;;;;;;;7.66;71.25;101297.88;5040915;28;20072;-51
2021/11/10 10:45:59;;;;;;;16.90;10.07;;;;;;;7.75;70.78;101299.44;5032997;28;20064;-51
2021/11/10 10:48:30;;;;;;;14.75;9.65;;;;;;;7.85;69.13;101308.91;5035562;28;20454;-53
2021/11/10 10:51:04;;;;;;;12.48;8.73;;;;;;;7.99;69.71;101309.50;5044337;28;20041;-52
2021/11/10 10:53:39;;;;;;;17.05;10.23;;;;;;;8.09;68.75;101292.53;5042042;28;20038;-53
2021/11/10 10:56:23;;;;;;;14.32;9.75;;;;;;;8.30;67.76;101306.16;5030971;28;20057;-53
2021/11/10 10:59:10;;;;;;;16.08;9.93;;;;;;;8.17;67.70;101302.94;5031451;28;20042;-51
2021/11/10 11:01:43;;;;;;;13.75;9.60;;;;;;;8.15;69.02;101306.50;5039125;28;20049;-51
2021/11/10 11:04:14;;;;;;;13.10;9.15;;;;;;;8.15;68.20;101307.38;5033123;28;20054;-52
2021/11/10 11:06:42;;;;;;;;;;;;;;;8.23;69.08;101304.56;5029174;28;20041;-53
2021/11/10 11:09:15;;;;;;;15.90;9.07;;;;;;;8.42;67.71;101292.69;5035230;28;19934;-51
2021/11/10 11:12:05;;;;;;;15.48;9.82;;;;;;;8.42;67.18;101300.63;5029480;28;20131;-52
2021/11/10 11:14:45;;;;;;;14.70;10.18;;;;;;;8.48;68.12;101297.84;5028539;28;20454;-53
2021/11/10 11:17:25;;;;;;;13.40;10.00;;;;;;;8.63;66.88;101305.41;5026918;28;20055;-52
2021/11/10 11:19:57;;;;;;;13.47;9.50;;;;;;;8.71;66.38;101313.13;5033663;28;20072;-53
2021/11/10 11:22:28;;;;;;;15.10;9.43;;;;;;;8.86;66.57;101306.56;5030133;28;20410;-52
2021/11/10 11:24:54;;;;;;;13.52;8.73;;;;;;;8.98;66.44;101296.56;5028355;28;20049;-52
2021/11/10 11:27:30;;;;;;;12.88;9.23;;;;;;;9.14;65.65;101294.38;5029111;28;20048;-52
2021/11/10 11:30:08;;;;;;;13.30;9.05;;;;;;;9.04;65.23;101296.41;5029585;28;20041;-53
2021/11/10 11:32:38;;;;;;;17.17;10.35;;;;;;;9.05;65.17;101294.63;5026112;28;20041;-51